createdAt,value
2016-11-03T06:03:13.296Z,4.3
2016-11-03T06:04:14.314Z,4.3
2016-11-03T06:05:15.308Z,4.3
2016-11-03T06:09:11.011Z,4.3
2016-11-03T06:10:03.891Z,4.3
2016-11-03T06:11:10.426Z,4.3
2016-11-03T06:13:08.294Z,4.3
2016-11-03T06:14:09.803Z,4.2
2016-11-03T06:19:17.418Z,4.1
2016-11-03T06:20:18.913Z,4.4
2016-11-03T06:22:21.755Z,4.9
2016-11-03T06:23:23.251Z,4.9
2016-11-03T06:25:26.655Z,4.8
2016-11-03T06:27:29.553Z,4.6
2016-11-03T06:30:33.928Z,4.4
2016-11-03T06:31:35.402Z,4.3
2016-11-03T06:36:01.309Z,4.2
2016-11-03T06:37:44.581Z,4.1
2016-11-03T06:38:46.055Z,4.1
2016-11-03T06:40:48.955Z,4
2016-11-03T06:43:53.760Z,4
2016-11-03T06:45:56.661Z,4
2016-11-03T06:46:58.099Z,4
2016-11-03T06:47:59.600Z,4
2016-11-03T06:49:01.104Z,4
2016-11-03T06:50:02.611Z,4
2016-11-03T06:51:04.108Z,4
2016-11-03T06:52:05.550Z,4.1
2016-11-03T06:53:07.026Z,4.1
2016-11-03T06:55:10.372Z,4.1
2016-11-03T06:56:11.817Z,4.2
2016-11-03T06:59:16.159Z,4.3
2016-11-03T07:02:20.962Z,4.3
2016-11-03T07:04:23.861Z,4.4
2016-11-03T07:05:50.024Z,4.4
2016-11-03T07:06:51.016Z,4.4
2016-11-03T07:07:28.298Z,4.5
2016-11-03T07:08:29.739Z,4.5
2016-11-03T07:09:31.183Z,4.5
2016-11-03T07:10:01.422Z,4.5
2016-11-03T07:11:02.560Z,4.5
2016-11-03T07:12:35.763Z,4.6
2016-11-03T07:13:47.325Z,4.6
2016-11-03T07:14:48.319Z,4.6
2016-11-03T07:15:40.704Z,4.6
2016-11-03T07:16:46.230Z,4.7
2016-11-03T07:17:47.226Z,4.7
2016-11-03T07:19:46.599Z,4.7
2016-11-03T07:20:48.234Z,4.7
2016-11-03T07:21:49.669Z,4.8
2016-11-03T07:23:52.509Z,4.8
2016-11-03T07:26:57.318Z,4.8
2016-11-03T07:27:58.819Z,4.8
2016-11-03T07:30:01.723Z,4.9
2016-11-03T07:35:09.447Z,4.9
2016-11-03T07:39:15.672Z,5
2016-11-03T07:45:24.686Z,5
2016-11-03T07:46:35.244Z,5
2016-11-03T07:55:40.027Z,5.1
2016-11-03T08:01:49.223Z,5.2
2016-11-03T08:02:50.722Z,5.2
2016-11-03T08:03:52.163Z,5.2
2016-11-03T08:04:53.661Z,5.2
2016-11-03T08:05:55.166Z,5.2
2016-11-03T08:09:26.762Z,5.2
2016-11-03T08:10:01.564Z,5.2
2016-11-03T08:12:04.466Z,5.3
2016-11-03T08:13:25.595Z,5.3
2016-11-03T08:15:09.373Z,5.3
2016-11-03T08:16:24.460Z,5.3
2016-11-03T08:17:25.453Z,5.3
2016-11-03T08:20:22.827Z,5.2
2016-11-03T08:21:23.825Z,5.2
2016-11-03T08:23:21.644Z,5.2
2016-11-03T08:24:23.084Z,5.2
2016-11-03T08:26:26.042Z,5.2
2016-11-03T08:27:27.480Z,5.2
2016-11-03T08:30:32.230Z,5.1
2016-11-03T08:31:33.727Z,5.1
2016-11-03T08:32:35.221Z,5.1
2016-11-03T08:33:36.661Z,5.1
2016-11-03T08:34:38.662Z,5.1
2016-11-03T08:35:40.155Z,5.1
2016-11-03T08:36:41.652Z,5.1
2016-11-03T08:38:44.554Z,5.1
2016-11-03T08:41:49.415Z,5
2016-11-03T08:43:14.570Z,5
2016-11-03T08:44:15.568Z,5
2016-11-03T08:47:58.126Z,5
2016-11-03T08:52:04.343Z,4.9
2016-11-03T08:54:10.766Z,4.9
2016-11-03T08:55:11.765Z,4.9
2016-11-03T08:56:10.686Z,4.9
2016-11-03T08:57:12.194Z,4.9
2016-11-03T08:58:13.693Z,4.9
2016-11-03T09:02:19.843Z,4.9
2016-11-03T09:04:22.746Z,4.9
2016-11-03T09:07:27.559Z,4.9
2016-11-03T09:09:30.456Z,4.8
2016-11-03T09:12:35.326Z,4.8
2016-11-03T09:13:36.765Z,4.8
2016-11-03T09:15:03.423Z,4.8
2016-11-03T09:16:04.422Z,4.8
2016-11-03T09:17:42.611Z,4.8
2016-11-03T09:22:01.021Z,4.8
2016-11-03T09:23:02.013Z,4.8
2016-11-03T09:27:58.110Z,4.8
2016-11-03T09:28:59.551Z,4.8
2016-11-03T09:33:05.772Z,4.8
2016-11-03T09:36:10.108Z,4.8
2016-11-03T09:37:11.609Z,4.8
2016-11-03T09:38:13.053Z,4.8
2016-11-03T09:39:15.002Z,4.8
2016-11-03T09:40:16.500Z,4.8
2016-11-03T09:41:18.037Z,4.8
2016-11-03T09:45:23.745Z,4.8
2016-11-03T09:48:28.689Z,4.8
2016-11-03T09:49:30.130Z,4.8
2016-11-03T09:50:51.259Z,4.8
2016-11-03T09:52:34.480Z,4.8
2016-11-03T09:56:40.750Z,4.8
2016-11-03T09:58:43.589Z,4.8
2016-11-03T10:00:46.991Z,4.8
2016-11-03T10:01:48.430Z,4.8
2016-11-03T10:02:49.928Z,4.8
2016-11-03T10:03:51.424Z,4.8
2016-11-03T10:05:54.269Z,4.8
2016-11-03T10:08:59.085Z,4.8
2016-11-03T10:10:00.577Z,4.8
2016-11-03T10:11:02.017Z,4.8
2016-11-03T10:12:03.456Z,4.8
2016-11-03T10:15:08.324Z,4.9
2016-11-03T10:16:09.763Z,4.9
2016-11-03T10:19:14.549Z,4.9
2016-11-03T10:21:17.447Z,4.9
2016-11-03T10:33:35.617Z,4.9
2016-11-03T10:37:41.863Z,4.9
2016-11-03T10:38:43.359Z,4.9
2016-11-03T10:51:31.342Z,5
2016-11-03T10:55:07.920Z,5.1
2016-11-03T10:56:09.364Z,5
2016-11-03T11:02:18.435Z,5.1
2016-11-03T11:03:27.484Z,5.1
2016-11-03T11:04:28.483Z,5.1
2016-11-03T11:06:24.850Z,5.1
2016-11-03T11:07:26.351Z,5.1
2016-11-03T11:11:32.114Z,5.1
2016-11-03T11:17:41.629Z,5.1
2016-11-03T11:22:49.350Z,5.1
2016-11-03T11:23:19.582Z,5.1
2016-11-03T11:25:53.683Z,5.2
2016-11-03T11:27:57.087Z,5.2
2016-11-03T11:29:19.218Z,5.2
2016-11-03T11:31:01.480Z,5.2
2016-11-03T11:32:18.081Z,5.2
2016-11-03T11:44:21.703Z,5.3
2016-11-03T11:45:23.197Z,5.3
2016-11-03T11:46:24.694Z,5.3
2016-11-03T11:47:26.142Z,5.4
2016-11-03T11:48:27.676Z,5.4
2016-11-03T11:52:33.554Z,5.4
2016-11-03T11:55:38.361Z,5.5
2016-11-03T11:59:09.898Z,5.5
2016-11-03T11:59:44.669Z,5.5
2016-11-03T12:01:09.321Z,5.5
2016-11-03T12:02:49.068Z,5.5
2016-11-03T12:04:08.683Z,5.5
2016-11-03T12:05:09.677Z,5.6
2016-11-03T12:06:10.677Z,5.6
2016-11-03T12:07:11.668Z,5.6
2016-11-03T12:08:12.665Z,5.6
2016-11-03T12:08:58.505Z,5.6
2016-11-03T12:10:07.048Z,5.6
2016-11-03T12:11:08.038Z,5.6
2016-11-03T12:14:06.255Z,5.6
2016-11-03T12:17:11.064Z,5.6
2016-11-03T12:18:12.587Z,5.7
2016-11-03T12:23:20.321Z,5.7
2016-11-03T12:24:21.950Z,5.7
2016-11-03T12:27:26.288Z,5.7
2016-11-03T12:28:27.786Z,5.7
2016-11-03T12:29:29.229Z,5.7
2016-11-03T12:31:00.978Z,5.7
2016-11-03T12:36:40.300Z,5.7
2016-11-03T12:38:43.220Z,5.7
2016-11-03T12:39:44.663Z,5.7
2016-11-03T12:40:46.603Z,5.8
2016-11-03T12:41:48.042Z,5.8
2016-11-03T12:43:50.952Z,5.8
2016-11-03T12:44:56.474Z,5.8
2016-11-03T12:48:58.662Z,5.8
2016-11-03T12:54:06.779Z,5.8
2016-11-03T12:58:13.042Z,5.8
2016-11-03T12:59:14.482Z,5.8
2016-11-03T13:01:17.562Z,5.8
2016-11-03T13:03:20.404Z,5.8
2016-11-03T13:06:25.267Z,5.8
2016-11-03T13:08:28.170Z,5.8
2016-11-03T13:16:40.568Z,5.9
2016-11-03T13:17:47.100Z,5.9
2016-11-03T13:18:48.090Z,5.9
2016-11-03T13:19:49.085Z,5.9
2016-11-03T13:21:48.405Z,5.8
2016-11-03T13:22:49.905Z,5.8
2016-11-03T13:23:51.404Z,5.9
2016-11-03T13:24:53.404Z,5.8
2016-11-03T13:26:56.244Z,5.9
2016-11-03T13:27:57.738Z,5.8
2016-11-03T13:28:59.235Z,5.8
2016-11-03T13:30:00.731Z,5.8
2016-11-03T13:31:02.676Z,5.8
2016-11-03T13:32:04.110Z,5.8
2016-11-03T13:33:05.554Z,5.8
2016-11-03T13:34:07.055Z,5.8
2016-11-03T13:35:08.549Z,5.8
2016-11-03T13:36:10.493Z,5.9
2016-11-03T13:38:13.396Z,5.9
2016-11-03T13:39:40.605Z,5.9
2016-11-03T13:40:16.389Z,5.9
2016-11-03T13:41:17.837Z,5.9
2016-11-03T13:42:39.967Z,5.9
2016-11-03T13:43:40.960Z,5.9
2016-11-03T13:44:41.960Z,5.9
2016-11-03T13:45:24.315Z,5.9
2016-11-03T13:46:38.897Z,5.9
2016-11-03T13:47:39.898Z,5.9
2016-11-03T13:48:40.937Z,5.9
2016-11-03T13:49:30.299Z,5.9
2016-11-03T13:50:37.836Z,5.9
2016-11-03T13:52:35.294Z,5.9
2016-11-03T13:54:38.131Z,5.9
2016-11-03T13:59:45.804Z,5.9
2016-11-03T14:00:47.305Z,6
2016-11-03T14:01:49.340Z,6
2016-11-03T14:02:51.215Z,6
2016-11-03T14:03:52.653Z,6
2016-11-03T14:04:53.592Z,6
2016-11-03T14:07:58.457Z,6
2016-11-03T14:08:59.955Z,6
2016-11-03T14:12:04.832Z,6
2016-11-03T14:13:31.997Z,6
2016-11-03T14:14:32.995Z,6
2016-11-03T14:15:33.995Z,6
2016-11-03T14:18:14.207Z,6
2016-11-03T14:20:17.113Z,6
2016-11-03T14:22:20.022Z,6
2016-11-03T14:28:29.540Z,6
2016-11-03T14:33:37.328Z,6.1
2016-11-03T14:38:45.058Z,6.1
2016-11-03T14:39:46.555Z,6.1
2016-11-03T14:40:48.056Z,6.1
2016-11-03T14:46:57.629Z,6.2
2016-11-03T14:48:22.794Z,6.2
2016-11-03T14:49:00.579Z,6.2
2016-11-03T14:50:22.206Z,6.2
2016-11-03T14:52:05.481Z,6.2
2016-11-03T14:53:21.576Z,6.2
2016-11-03T14:55:09.886Z,6.2
2016-11-03T14:56:20.945Z,6.2
2016-11-03T14:57:21.942Z,6.2
2016-11-03T14:58:22.933Z,6.2
2016-11-03T14:59:16.324Z,6.2
2016-11-03T15:00:19.836Z,6.3
2016-11-03T15:03:22.680Z,6.2
2016-11-03T15:05:25.580Z,6.2
2016-11-03T15:08:30.540Z,6.2
2016-11-03T15:09:31.984Z,6.2
2016-11-03T15:10:33.422Z,6.2
2016-11-03T15:11:34.917Z,6.2
2016-11-03T15:12:36.863Z,6.2
2016-11-03T15:13:38.360Z,6.2
2016-11-03T15:14:40.236Z,6.2
2016-11-03T15:15:41.245Z,6.3
2016-11-03T15:16:42.744Z,6.2
2016-11-03T15:18:46.096Z,6.2
2016-11-03T15:20:14.777Z,6.3
2016-11-03T15:21:15.781Z,6.3
2016-11-03T15:21:50.546Z,6.3
2016-11-03T15:24:55.355Z,6.3
2016-11-03T15:29:12.262Z,6.3
2016-11-03T15:30:13.256Z,6.3
2016-11-03T15:31:04.627Z,6.3
2016-11-03T15:32:11.799Z,6.3
2016-11-03T15:33:12.794Z,6.3
2016-11-03T15:34:13.785Z,6.3
2016-11-03T15:38:15.915Z,6.3
2016-11-03T15:39:17.357Z,6.3
2016-11-03T15:40:18.797Z,6.3
2016-11-03T15:44:25.133Z,6.3
2016-11-03T15:46:27.979Z,6.3
2016-11-03T15:48:31.422Z,6.3
2016-11-03T15:49:32.920Z,6.3
2016-11-03T15:50:34.417Z,6.3
2016-11-03T15:52:06.112Z,6.3
2016-11-03T15:53:07.175Z,6.3
2016-11-03T15:55:05.741Z,6.3
2016-11-03T15:59:48.728Z,6.3
2016-11-03T16:00:50.170Z,6.3
2016-11-03T16:02:53.065Z,6.3
2016-11-03T16:05:57.884Z,6.3
2016-11-03T16:07:02.401Z,6.3
2016-11-03T16:08:03.396Z,6.3
2016-11-03T16:10:04.225Z,6.3
2016-11-03T16:12:07.117Z,6.3
2016-11-03T16:13:08.614Z,6.3
2016-11-03T16:16:13.426Z,6.3
2016-11-03T16:17:14.867Z,6.3
2016-11-03T16:22:23.101Z,6.3
2016-11-03T16:23:24.633Z,6.3
2016-11-03T16:26:28.942Z,6.3
2016-11-03T16:27:56.613Z,6.3
2016-11-03T16:28:57.613Z,6.3
2016-11-03T16:29:33.885Z,6.3
2016-11-03T16:30:56.019Z,6.3
2016-11-03T16:31:57.012Z,6.3
2016-11-03T16:34:54.826Z,6.2
2016-11-03T16:35:55.821Z,6.2
2016-11-03T16:36:45.189Z,6.2
2016-11-03T16:38:54.186Z,6.2
2016-11-03T16:39:55.180Z,6.2
2016-11-03T16:40:51.082Z,6.2
2016-11-03T16:41:53.086Z,6.2
2016-11-03T16:42:54.081Z,6.2
2016-11-03T16:43:55.519Z,6.2
2016-11-03T16:44:57.468Z,6.2
2016-11-03T16:45:58.903Z,6.2
2016-11-03T16:47:00.407Z,6.2
2016-11-03T16:48:01.901Z,6.2
2016-11-03T16:49:03.400Z,6.2
2016-11-03T16:50:04.838Z,6.2
2016-11-03T16:51:06.332Z,6.2
2016-11-03T16:55:12.837Z,6.2
2016-11-03T16:56:14.338Z,6.2
2016-11-03T16:57:15.781Z,6.2
2016-11-03T17:00:47.889Z,6.2
2016-11-03T17:01:22.151Z,6.2
2016-11-03T17:02:23.599Z,6.2
2016-11-03T17:03:25.545Z,6.2
2016-11-03T17:04:46.679Z,6.2
2016-11-03T17:05:47.670Z,6.2
2016-11-03T17:06:48.668Z,6.2
2016-11-03T17:07:31.483Z,6.2
2016-11-03T17:08:45.568Z,6.3
2016-11-03T17:09:46.564Z,6.2
2016-11-03T17:10:47.556Z,6.3
2016-11-03T17:11:37.923Z,6.2
2016-11-03T17:12:44.454Z,6.2
2016-11-03T17:14:42.385Z,6.2
2016-11-03T17:16:45.800Z,6.3
2016-11-03T17:17:47.300Z,6.2
2016-11-03T17:18:48.796Z,6.2
2016-11-03T17:19:50.441Z,6.2
2016-11-03T17:23:56.719Z,6.2
2016-11-03T17:24:58.157Z,6.2
2016-11-03T17:25:59.653Z,6.3
2016-11-03T17:27:01.153Z,6.2
2016-11-03T17:28:02.657Z,6.2
2016-11-03T17:29:04.162Z,6.2
2016-11-03T17:32:39.285Z,6.2
2016-11-03T17:34:11.935Z,6.2
2016-11-03T17:35:13.882Z,6.2
2016-11-03T17:36:38.035Z,6.2
2016-11-03T17:37:39.028Z,6.2
2016-11-03T17:38:40.024Z,6.2
2016-11-03T17:39:19.820Z,6.2
2016-11-03T17:40:36.920Z,6.2
2016-11-03T17:41:37.914Z,6.2
2016-11-03T17:42:24.753Z,6.2
2016-11-03T17:43:35.818Z,6.2
2016-11-03T17:44:36.818Z,6.2
2016-11-03T17:46:35.184Z,6.2
2016-11-03T17:47:36.190Z,6.2
2016-11-03T17:49:35.569Z,6.2
2016-11-03T17:50:37.067Z,6.2
2016-11-03T17:51:38.568Z,6.2
2016-11-03T17:52:40.012Z,6.3
2016-11-03T17:53:42.002Z,6.2
2016-11-03T17:54:43.498Z,6.3
2016-11-03T17:55:45.057Z,6.3
2016-11-03T17:56:46.558Z,6.3
2016-11-03T17:57:48.003Z,6.3
2016-11-03T17:58:49.441Z,6.3
2016-11-03T17:59:50.880Z,6.3
2016-11-03T18:00:52.879Z,6.3
2016-11-03T18:01:54.380Z,6.3
2016-11-03T18:06:29.842Z,6.3
2016-11-03T18:08:03.551Z,6.3
2016-11-03T18:15:27.111Z,6.3
2016-11-03T18:20:22.146Z,6.4
2016-11-03T18:21:24.091Z,6.4
2016-11-03T18:22:25.594Z,6.4
2016-11-03T18:23:27.095Z,6.4
2016-11-03T18:24:28.590Z,6.4
2016-11-03T18:27:33.456Z,6.4
2016-11-03T18:28:34.899Z,6.4
2016-11-03T18:29:36.343Z,6.4
2016-11-03T18:30:37.841Z,6.4
2016-11-03T18:32:41.246Z,6.4
2016-11-03T18:33:42.747Z,6.4
2016-11-03T18:34:44.188Z,6.4
2016-11-03T18:35:45.689Z,6.4
2016-11-03T18:36:47.191Z,6.4
2016-11-03T18:37:49.192Z,6.4
2016-11-03T18:41:19.784Z,6.4
2016-11-03T18:42:57.520Z,6.4
2016-11-03T18:44:19.143Z,6.4
2016-11-03T18:45:20.138Z,6.4
2016-11-03T18:48:04.779Z,6.4
2016-11-03T18:49:17.854Z,6.4
2016-11-03T18:50:18.844Z,6.4
2016-11-03T18:51:19.843Z,6.4
2016-11-03T18:52:10.723Z,6.4
2016-11-03T18:53:16.884Z,6.4
2016-11-03T18:56:17.228Z,6.4
2016-11-03T18:57:18.748Z,6.4
2016-11-03T18:59:21.644Z,6.4
2016-11-03T19:00:23.640Z,6.5
2016-11-03T19:01:25.137Z,6.4
2016-11-03T19:03:28.037Z,6.5
2016-11-03T19:04:29.532Z,6.5
2016-11-03T19:05:31.034Z,6.4
2016-11-03T19:08:35.846Z,6.5
2016-11-03T19:09:37.411Z,6.5
2016-11-03T19:10:38.907Z,6.5
2016-11-03T19:11:40.486Z,6.4
2016-11-03T19:15:11.788Z,6.5
2016-11-03T19:15:47.068Z,6.5
2016-11-03T19:17:49.970Z,6.5
2016-11-03T19:19:10.592Z,6.5
2016-11-03T19:20:11.622Z,6.5
2016-11-03T19:27:08.675Z,6.5
2016-11-03T19:28:09.668Z,6.5
2016-11-03T19:29:07.082Z,6.5
2016-11-03T19:30:09.090Z,6.5
2016-11-03T19:31:10.586Z,6.5
2016-11-03T19:32:12.088Z,6.5
2016-11-03T19:35:16.900Z,6.5
2016-11-03T19:36:18.397Z,6.5
2016-11-03T19:40:24.677Z,6.5
2016-11-03T19:45:32.349Z,6.5
2016-11-03T19:47:35.701Z,6.5
2016-11-03T19:49:02.873Z,6.5
2016-11-03T19:50:03.871Z,6.5
2016-11-03T19:51:04.867Z,6.5
2016-11-03T19:51:41.643Z,6.5
2016-11-03T19:55:01.162Z,6.5
2016-11-03T19:55:48.012Z,6.5
2016-11-03T19:57:00.583Z,6.5
2016-11-03T19:58:01.583Z,6.5
2016-11-03T19:59:02.575Z,6.5
2016-11-03T20:02:58.837Z,6.5
2016-11-03T20:07:05.163Z,6.5
2016-11-03T20:08:06.661Z,6.6
2016-11-03T20:09:08.661Z,6.5
2016-11-03T20:10:10.098Z,6.5
2016-11-03T20:11:11.619Z,6.5
2016-11-03T20:12:13.122Z,6.5
2016-11-03T20:16:19.393Z,6.5
2016-11-03T20:17:20.898Z,6.6
2016-11-03T20:18:22.334Z,6.5
2016-11-03T20:23:52.826Z,6.6
2016-11-03T20:24:53.826Z,6.6
2016-11-03T20:25:33.624Z,6.6
2016-11-03T20:26:52.271Z,6.6
2016-11-03T20:27:53.268Z,6.6
2016-11-03T20:28:54.270Z,6.6
2016-11-03T20:29:39.610Z,6.6
2016-11-03T20:33:49.956Z,6.6
2016-11-03T20:34:50.960Z,6.6
2016-11-03T20:35:51.954Z,6.6
2016-11-03T20:36:50.885Z,6.6
2016-11-03T20:37:52.381Z,6.6
2016-11-03T20:38:53.876Z,6.6
2016-11-03T20:41:58.680Z,6.6
2016-11-03T20:43:00.681Z,6.6
2016-11-03T20:44:01.813Z,6.6
2016-11-03T20:45:03.343Z,6.6
2016-11-03T20:48:08.213Z,6.6
2016-11-03T20:49:09.709Z,6.6
2016-11-03T20:50:11.145Z,6.6
2016-11-03T20:51:12.640Z,6.6
2016-11-03T20:52:14.136Z,6.6
2016-11-03T20:53:16.084Z,6.6
2016-11-03T20:54:44.256Z,6.6
2016-11-03T20:57:22.442Z,6.6
2016-11-03T20:59:25.285Z,6.6
2016-11-03T21:03:31.507Z,6.6
2016-11-03T21:04:41.567Z,6.6
2016-11-03T21:05:42.562Z,6.6
2016-11-03T21:09:41.279Z,6.6
2016-11-03T21:10:42.778Z,6.6
2016-11-03T21:13:47.080Z,6.6
2016-11-03T21:14:49.109Z,6.6
2016-11-03T21:15:50.612Z,6.6
2016-11-03T21:16:52.174Z,6.6
2016-11-03T21:17:53.622Z,6.6
2016-11-03T21:21:59.954Z,6.6
2016-11-03T21:23:01.454Z,6.6
2016-11-03T21:24:02.948Z,6.6
2016-11-03T21:28:35.000Z,6.6
2016-11-03T21:29:35.991Z,6.6
2016-11-03T21:31:33.920Z,6.6
2016-11-03T21:35:20.509Z,6.6
2016-11-03T21:36:32.582Z,6.6
2016-11-03T21:37:33.576Z,6.6
2016-11-03T21:41:29.785Z,6.6
2016-11-03T21:43:32.723Z,6.6
2016-11-03T21:46:37.585Z,6.6
2016-11-03T21:48:40.929Z,6.5
2016-11-03T21:49:42.440Z,6.5
2016-11-03T21:50:44.003Z,6.5
2016-11-03T21:51:45.503Z,6.5
2016-11-03T21:52:47.013Z,6.5
2016-11-03T21:53:48.512Z,6.5
2016-11-03T21:54:50.012Z,6.5
2016-11-03T21:55:51.487Z,6.5
2016-11-03T21:56:53.486Z,6.5
2016-11-03T21:57:54.980Z,6.5
2016-11-03T21:58:56.475Z,6.5
2016-11-03T22:01:25.599Z,6.5
2016-11-03T22:02:00.869Z,6.5
2016-11-03T22:03:25.019Z,6.5
2016-11-03T22:04:26.016Z,6.5
2016-11-03T22:05:27.008Z,6.5
2016-11-03T22:06:07.310Z,6.5
2016-11-03T22:07:23.908Z,6.5
2016-11-03T22:08:24.904Z,6.5
2016-11-03T22:09:25.903Z,6.5
2016-11-03T22:10:13.753Z,6.5
2016-11-03T22:11:22.798Z,6.5
2016-11-03T22:12:23.792Z,6.5
2016-11-03T22:13:18.187Z,6.5
2016-11-03T22:14:21.698Z,6.5
2016-11-03T22:15:22.693Z,6.5
2016-11-03T22:16:23.687Z,6.5
2016-11-03T22:17:24.635Z,6.5
2016-11-03T22:18:26.137Z,6.5
2016-11-03T22:19:27.650Z,6.5
2016-11-03T22:20:29.146Z,6.5
2016-11-03T22:21:31.090Z,6.5
2016-11-03T22:22:32.588Z,6.5
2016-11-03T22:23:34.087Z,6.5
2016-11-03T22:24:35.720Z,6.5
2016-11-03T22:25:37.158Z,6.5
2016-11-03T22:26:38.656Z,6.5
2016-11-03T22:27:40.151Z,6.5
2016-11-03T22:28:42.147Z,6.5
2016-11-03T22:29:43.590Z,6.5
2016-11-03T22:30:45.089Z,6.5
2016-11-03T22:34:16.236Z,6.5
2016-11-03T22:34:51.503Z,6.5
2016-11-03T22:35:52.943Z,6.5
2016-11-03T22:37:15.074Z,6.5
2016-11-03T22:38:16.073Z,6.5
2016-11-03T22:38:57.381Z,6.5
2016-11-03T22:39:59.328Z,6.5
2016-11-03T22:41:00.767Z,6.5
2016-11-03T22:42:13.844Z,6.5
2016-11-03T22:43:14.839Z,6.5
2016-11-03T22:44:05.207Z,6.5
2016-11-03T22:45:13.252Z,6.5
2016-11-03T22:46:14.250Z,6.5
2016-11-03T22:47:15.246Z,6.5
2016-11-03T22:48:11.653Z,6.5
2016-11-03T22:49:13.157Z,6.5
2016-11-03T22:50:14.652Z,6.5
2016-11-03T22:51:16.594Z,6.5
2016-11-03T22:52:18.031Z,6.5
2016-11-03T22:53:19.470Z,6.5
2016-11-03T22:54:20.972Z,6.5
2016-11-03T22:55:22.573Z,6.5
2016-11-03T22:56:24.015Z,6.5
2016-11-03T22:57:26.016Z,6.5
2016-11-03T22:58:27.515Z,6.5
2016-11-03T22:59:28.952Z,6.5
2016-11-03T23:00:30.458Z,6.5
2016-11-03T23:01:31.958Z,6.5
2016-11-03T23:02:33.496Z,6.5
2016-11-03T23:03:35.436Z,6.5
2016-11-03T23:04:36.874Z,6.5
2016-11-03T23:07:06.513Z,6.5
2016-11-03T23:08:07.507Z,6.5
2016-11-03T23:08:43.281Z,6.5
2016-11-03T23:09:44.716Z,6.5
2016-11-03T23:10:46.167Z,6.5
2016-11-03T23:12:05.280Z,6.5
2016-11-03T23:13:06.276Z,6.5
2016-11-03T23:13:51.108Z,6.5
2016-11-03T23:15:04.234Z,6.5
2016-11-03T23:16:05.226Z,6.5
2016-11-03T23:17:06.220Z,6.5
2016-11-03T23:17:57.089Z,6.5
2016-11-03T23:18:58.529Z,6.5
2016-11-03T23:20:03.055Z,6.5
2016-11-03T23:21:04.044Z,6.5
2016-11-03T23:22:05.039Z,6.5
2016-11-03T23:23:04.967Z,6.5
2016-11-03T23:24:06.467Z,6.5
2016-11-03T23:25:07.970Z,6.5
2016-11-03T23:26:09.972Z,6.5
2016-11-03T23:27:11.420Z,6.5
2016-11-03T23:28:12.862Z,6.5
2016-11-03T23:29:14.431Z,6.5
2016-11-03T23:30:15.930Z,6.5
2016-11-03T23:31:17.434Z,6.5
2016-11-03T23:32:19.385Z,6.5
2016-11-03T23:33:20.856Z,6.5
2016-11-03T23:34:22.293Z,6.4
2016-11-03T23:35:23.734Z,6.4
2016-11-03T23:36:25.231Z,6.4
2016-11-03T23:38:28.690Z,6.4
2016-11-03T23:39:56.861Z,6.4
2016-11-03T23:40:57.853Z,6.4
2016-11-03T23:41:58.847Z,6.4
2016-11-03T23:42:59.844Z,6.4
2016-11-03T23:44:00.838Z,6.4
2016-11-03T23:45:01.833Z,6.4
2016-11-03T23:45:39.619Z,6.4
2016-11-03T23:46:55.207Z,6.4
2016-11-03T23:47:56.200Z,6.4
2016-11-03T23:48:57.235Z,6.4
2016-11-03T23:49:45.592Z,6.4
2016-11-03T23:50:53.637Z,6.4
2016-11-03T23:51:54.630Z,6.4
2016-11-03T23:52:55.622Z,6.4
2016-11-03T23:53:52.031Z,6.4
2016-11-03T23:54:53.523Z,6.4
2016-11-03T23:55:55.019Z,6.4
2016-11-03T23:56:56.965Z,6.4
2016-11-03T23:57:58.465Z,6.4
2016-11-03T23:58:59.965Z,6.4
